createdAt,value
2022-11-11T00:02:24.030Z,-0.5
2022-11-11T00:07:34.980Z,-0.5
2022-11-11T00:10:05.571Z,-0.5
2022-11-11T00:12:36.195Z,-0.6
2022-11-11T00:15:06.820Z,-0.7
2022-11-11T00:17:37.401Z,-0.7
2022-11-11T00:20:08.024Z,-0.7
2022-11-11T00:22:42.599Z,-0.8
2022-11-11T00:27:43.400Z,-0.8
2022-11-11T00:30:14.124Z,-0.9
2022-11-11T00:32:44.695Z,-0.9
2022-11-11T00:35:15.372Z,-0.9
2022-11-11T00:37:56.109Z,-0.9
2022-11-11T00:40:26.873Z,-0.8
2022-11-11T00:42:57.575Z,-0.8
2022-11-11T00:45:28.321Z,-0.7
2022-11-11T00:47:59.026Z,-0.8
2022-11-11T00:50:39.713Z,-0.8
2022-11-11T00:53:10.470Z,-0.9
2022-11-11T00:55:46.736Z,-0.9
2022-11-11T00:58:17.545Z,-1.1
2022-11-11T01:00:49.123Z,-1.2
2022-11-11T01:03:19.790Z,-1.2
2022-11-11T01:08:30.548Z,-1.3
2022-11-11T01:11:01.343Z,-1.3
2022-11-11T01:13:32.167Z,-1.4
2022-11-11T01:16:03.030Z,-1.4
2022-11-11T01:18:33.727Z,-1.4
2022-11-11T01:21:14.438Z,-1.4
2022-11-11T01:23:45.775Z,-1.4
2022-11-11T01:26:16.631Z,-1.4
2022-11-11T01:28:41.193Z,-1.3
2022-11-11T01:31:11.853Z,-1.4
2022-11-11T01:33:42.450Z,-1.4
2022-11-11T01:36:23.206Z,-1.4
2022-11-11T01:38:53.998Z,-1.4
2022-11-11T01:41:24.904Z,-1.4
2022-11-11T01:43:56.083Z,-1.4
2022-11-11T01:48:57.151Z,-1.5
2022-11-11T01:51:38.040Z,-1.6
2022-11-11T01:54:08.696Z,-1.4
2022-11-11T01:56:39.545Z,-1.5
2022-11-11T01:59:10.383Z,-1.5
2022-11-11T02:01:41.352Z,-1.6
2022-11-11T02:04:22.381Z,-1.6
2022-11-11T02:06:53.137Z,-1.7
2022-11-11T02:09:24.514Z,-1.6
2022-11-11T02:11:55.245Z,-1.6
2022-11-11T02:14:26.120Z,-1.6
2022-11-11T02:16:58.563Z,-1.7
2022-11-11T02:19:39.564Z,-1.7
2022-11-11T02:22:10.610Z,-1.7
2022-11-11T02:24:41.545Z,-1.7
2022-11-11T02:29:42.683Z,-1.5
2022-11-11T02:32:13.620Z,-1.5
2022-11-11T02:34:54.693Z,-1.4
2022-11-11T02:37:25.520Z,-1.7
2022-11-11T02:40:03.487Z,-1.8
2022-11-11T02:42:24.934Z,-1.9
2022-11-11T02:44:55.939Z,-2.0
2022-11-11T02:47:26.646Z,-2.1
2022-11-11T02:50:07.658Z,-2.1
2022-11-11T02:52:38.551Z,-2.1
2022-11-11T02:55:09.213Z,-2.1
2022-11-11T02:57:40.137Z,-2.0
2022-11-11T03:00:10.902Z,-2.0
2022-11-11T03:02:51.836Z,-2.0
2022-11-11T03:05:22.990Z,-1.9
2022-11-11T03:10:24.247Z,-1.9
2022-11-11T03:12:55.095Z,-2.0
2022-11-11T03:15:25.809Z,-2.1
2022-11-11T03:18:06.517Z,-2.1
2022-11-11T03:20:37.293Z,-2.2
2022-11-11T03:23:07.880Z,-2.3
2022-11-11T03:25:38.576Z,-2.3
2022-11-11T03:28:09.165Z,-2.1
2022-11-11T03:30:39.787Z,-2.1
2022-11-11T03:33:24.780Z,-2.1
2022-11-11T03:35:55.633Z,-2.1
2022-11-11T03:38:26.237Z,-2.3
2022-11-11T03:40:56.857Z,-2.3
2022-11-11T03:43:27.631Z,-2.4
2022-11-11T03:45:58.344Z,-2.4
2022-11-11T03:51:09.126Z,-2.4
2022-11-11T03:53:39.736Z,-2.4
2022-11-11T03:56:10.354Z,-2.4
2022-11-11T03:58:40.939Z,-2.4
2022-11-11T04:01:11.540Z,-2.4
2022-11-11T04:03:52.396Z,-2.4
2022-11-11T04:06:22.988Z,-2.5
2022-11-11T04:08:53.786Z,-2.5
2022-11-11T04:11:24.392Z,-2.4
2022-11-11T04:13:54.967Z,-2.4
2022-11-11T04:16:35.644Z,-2.4
2022-11-11T04:19:06.231Z,-2.4
2022-11-11T04:21:36.814Z,-2.4
2022-11-11T04:24:07.428Z,-2.4
2022-11-11T04:26:38.031Z,-2.3
2022-11-11T04:31:48.824Z,-2.3
2022-11-11T04:34:19.415Z,-2.4
2022-11-11T04:36:50.031Z,-2.4
2022-11-11T04:39:20.644Z,-2.5
2022-11-11T04:44:21.358Z,-2.5
2022-11-11T04:47:01.977Z,-2.5
2022-11-11T04:49:32.581Z,-2.4
2022-11-11T04:52:03.192Z,-2.5
2022-11-11T04:54:33.831Z,-2.5
2022-11-11T04:57:04.429Z,-2.6
2022-11-11T04:59:35.035Z,-2.6
2022-11-11T05:02:25.643Z,-2.7
2022-11-11T05:04:56.244Z,-2.7
2022-11-11T05:07:26.878Z,-2.7
2022-11-11T05:12:27.660Z,-2.8
2022-11-11T05:15:08.264Z,-2.7
2022-11-11T05:17:38.857Z,-2.8
2022-11-11T05:20:09.426Z,-2.8
2022-11-11T05:22:31.880Z,-2.8
2022-11-11T05:25:02.468Z,-2.7
2022-11-11T05:27:43.063Z,-2.8
2022-11-11T05:30:23.693Z,-2.8
2022-11-11T05:32:54.293Z,-2.9
2022-11-11T05:35:24.901Z,-2.9
2022-11-11T05:37:55.488Z,-2.9
2022-11-11T05:40:26.080Z,-2.9
2022-11-11T05:42:56.695Z,-2.9
2022-11-11T05:45:37.311Z,-2.9
2022-11-11T05:48:07.913Z,-2.9
2022-11-11T05:53:08.703Z,-2.9
2022-11-11T05:55:39.315Z,-2.7
2022-11-11T05:58:09.953Z,-2.8
2022-11-11T06:00:50.594Z,-2.8
2022-11-11T06:03:21.493Z,-2.8
2022-11-11T06:05:52.229Z,-2.9
2022-11-11T06:08:24.175Z,-2.9
2022-11-11T06:10:54.801Z,-2.9
2022-11-11T06:13:35.407Z,-2.9
2022-11-11T06:16:05.988Z,-2.9
2022-11-11T06:18:36.563Z,-3.0
2022-11-11T06:21:07.118Z,-3.0
2022-11-11T06:23:37.721Z,-3.0
2022-11-11T06:26:08.330Z,-3.0
2022-11-11T06:28:48.935Z,-3.0
2022-11-11T06:33:49.678Z,-2.9
2022-11-11T06:36:20.272Z,-2.9
2022-11-11T06:38:50.892Z,-2.9
2022-11-11T06:41:21.498Z,-2.9
2022-11-11T06:44:02.087Z,-2.6
2022-11-11T06:46:32.681Z,-2.6
2022-11-11T06:49:03.287Z,-2.7
2022-11-11T06:51:33.893Z,-2.6
2022-11-11T06:54:04.548Z,-2.6
2022-11-11T06:56:35.194Z,-2.6
2022-11-11T06:59:15.803Z,-2.5
2022-11-11T07:01:46.386Z,-2.5
2022-11-11T07:04:16.982Z,-2.5
2022-11-11T07:06:47.661Z,-2.4
2022-11-11T07:09:18.389Z,-2.3
2022-11-11T07:14:29.147Z,-2.2
2022-11-11T07:17:04.870Z,-2.1
2022-11-11T07:19:36.708Z,-2.1
2022-11-11T07:22:07.409Z,-2.1
2022-11-11T07:24:38.018Z,-2.2
2022-11-11T07:27:18.591Z,-2.4
2022-11-11T07:29:49.175Z,-2.5
2022-11-11T07:32:19.750Z,-2.4
2022-11-11T07:34:50.344Z,-2.4
2022-11-11T07:37:20.954Z,-2.4
2022-11-11T07:39:51.566Z,-2.3
2022-11-11T07:42:32.178Z,-2.3
2022-11-11T07:45:02.786Z,-2.3
2022-11-11T07:47:33.403Z,-2.1
2022-11-11T07:50:07.536Z,-2.1
2022-11-11T07:54:58.772Z,-2.0
2022-11-11T07:57:39.393Z,-1.9
2022-11-11T08:00:10.099Z,-1.7
2022-11-11T08:02:40.700Z,-1.7
2022-11-11T08:05:18.579Z,-1.6
2022-11-11T08:07:49.169Z,-1.4
2022-11-11T08:10:19.757Z,-1.3
2022-11-11T08:13:00.370Z,-1.2
2022-11-11T08:15:30.990Z,-1.1
2022-11-11T08:18:01.602Z,-1.0
2022-11-11T08:20:32.561Z,-0.9
2022-11-11T08:23:25.067Z,-0.7
2022-11-11T08:25:34.930Z,-0.5
2022-11-11T08:28:15.550Z,-0.4
2022-11-11T08:30:46.513Z,-0.2
2022-11-11T08:35:43.536Z,0.0
2022-11-11T08:38:14.157Z,0.1
2022-11-11T08:40:54.924Z,0.3
2022-11-11T08:43:25.799Z,0.3
2022-11-11T08:45:58.144Z,0.4
2022-11-11T08:48:28.977Z,0.5
2022-11-11T08:50:59.606Z,0.6
2022-11-11T08:53:30.185Z,0.7
2022-11-11T08:56:10.830Z,0.8
2022-11-11T08:58:41.428Z,0.9
2022-11-11T09:01:12.110Z,1.0
2022-11-11T09:03:42.893Z,1.1
2022-11-11T09:06:17.964Z,1.3
2022-11-11T09:08:48.609Z,1.4
2022-11-11T09:11:29.214Z,1.5
2022-11-11T09:16:29.925Z,1.7
2022-11-11T09:19:00.505Z,1.9
2022-11-11T09:21:31.093Z,1.9
2022-11-11T09:24:01.716Z,2.0
2022-11-11T09:26:42.304Z,2.1
2022-11-11T09:29:12.905Z,2.1
2022-11-11T09:31:45.369Z,2.2
2022-11-11T09:34:16.414Z,2.3
2022-11-11T09:36:47.208Z,2.3
2022-11-11T09:39:17.825Z,2.4
2022-11-11T09:42:02.406Z,2.6
2022-11-11T09:44:26.315Z,2.7
2022-11-11T09:46:56.918Z,2.7
2022-11-11T09:49:27.602Z,2.8
2022-11-11T09:51:58.217Z,2.9
2022-11-11T09:57:08.982Z,3.1
2022-11-11T09:59:39.568Z,3.3
2022-11-11T10:02:10.181Z,3.5
2022-11-11T10:04:40.751Z,3.6
2022-11-11T10:07:11.370Z,3.7
2022-11-11T10:09:51.981Z,3.9
2022-11-11T10:12:22.600Z,3.9
2022-11-11T10:14:53.995Z,3.9
2022-11-11T10:17:24.635Z,3.9
2022-11-11T10:19:55.222Z,3.9
2022-11-11T10:22:25.830Z,4.0
2022-11-11T10:25:06.436Z,4.1
2022-11-11T10:27:37.059Z,4.2
2022-11-11T10:30:07.662Z,4.3
2022-11-11T10:32:41.912Z,4.3
2022-11-11T10:37:42.665Z,4.7
2022-11-11T10:40:23.296Z,4.8
2022-11-11T10:42:53.901Z,4.9
2022-11-11T10:45:24.500Z,4.8
2022-11-11T10:47:55.214Z,4.9
2022-11-11T10:50:25.835Z,4.7
2022-11-11T10:53:06.462Z,4.8
2022-11-11T10:55:37.066Z,4.9
2022-11-11T10:58:07.652Z,4.8
2022-11-11T11:00:42.720Z,4.8
2022-11-11T11:03:14.581Z,4.9
2022-11-11T11:05:45.184Z,5.2
2022-11-11T11:08:26.198Z,5.4
2022-11-11T11:10:56.988Z,5.5
2022-11-11T11:13:27.579Z,5.6
2022-11-11T11:18:28.404Z,5.6
2022-11-11T11:20:53.732Z,5.7
2022-11-11T11:23:34.385Z,5.7
2022-11-11T11:26:05.014Z,5.6
2022-11-11T11:28:35.633Z,5.6
2022-11-11T11:31:06.255Z,5.7
2022-11-11T11:33:36.845Z,5.5
2022-11-11T11:36:07.445Z,5.5
2022-11-11T11:38:48.043Z,5.4
2022-11-11T11:41:18.635Z,5.5
2022-11-11T11:43:49.210Z,5.6
2022-11-11T11:46:19.801Z,5.6
2022-11-11T11:48:50.390Z,5.6
2022-11-11T11:51:31.006Z,5.4
2022-11-11T11:54:01.605Z,5.5
2022-11-11T11:59:12.367Z,5.4
2022-11-11T12:01:42.960Z,5.7
2022-11-11T12:04:13.696Z,5.9
2022-11-11T12:06:45.907Z,5.7
2022-11-11T12:09:16.585Z,5.9
2022-11-11T12:11:47.185Z,6.0
2022-11-11T12:14:17.787Z,6.0
2022-11-11T12:16:48.415Z,6.2
2022-11-11T12:19:19.033Z,6.4
2022-11-11T12:22:01.907Z,6.5
2022-11-11T12:24:33.531Z,6.5
2022-11-11T12:27:04.175Z,6.6
2022-11-11T12:29:34.823Z,6.7
2022-11-11T12:32:05.421Z,6.7
2022-11-11T12:39:46.312Z,6.8
2022-11-11T12:42:16.921Z,6.8
2022-11-11T12:44:47.513Z,6.8
2022-11-11T12:47:18.081Z,6.8
2022-11-11T12:49:48.685Z,6.7
2022-11-11T12:52:29.328Z,6.8
2022-11-11T12:54:59.941Z,6.6
2022-11-11T12:57:30.574Z,6.6
2022-11-11T13:02:41.289Z,6.7
2022-11-11T13:05:21.932Z,6.8
2022-11-11T13:07:52.520Z,6.8
2022-11-11T13:10:23.095Z,6.8
2022-11-11T13:12:53.669Z,6.7
2022-11-11T13:15:24.268Z,6.6
2022-11-11T13:20:35.012Z,6.4
2022-11-11T13:23:05.592Z,6.4
2022-11-11T13:25:38.638Z,6.2
2022-11-11T13:28:04.445Z,6.2
2022-11-11T13:30:35.032Z,6.1
2022-11-11T13:33:05.605Z,6.1
2022-11-11T13:35:44.340Z,6.1
2022-11-11T13:38:14.933Z,6.1
2022-11-11T13:40:45.539Z,6.1
2022-11-11T13:43:16.135Z,6.2
2022-11-11T13:45:47.239Z,6.2
2022-11-11T13:48:17.849Z,6.2
2022-11-11T13:50:58.480Z,6.2
2022-11-11T13:53:29.092Z,6.3
2022-11-11T13:55:59.675Z,6.4
2022-11-11T14:01:00.483Z,6.6
2022-11-11T14:03:41.373Z,6.7
2022-11-11T14:06:11.980Z,6.9
2022-11-11T14:08:42.772Z,6.9
2022-11-11T14:11:13.382Z,6.8
2022-11-11T14:13:43.970Z,6.5
2022-11-11T14:16:14.592Z,6.3
2022-11-11T14:18:55.201Z,6.2
2022-11-11T14:21:35.794Z,6.1
2022-11-11T14:24:00.141Z,6.0
2022-11-11T14:26:30.823Z,6.0
2022-11-11T14:29:01.421Z,6.2
2022-11-11T14:31:32.035Z,6.4
2022-11-11T14:34:13.500Z,6.7
2022-11-11T14:36:44.112Z,6.8
2022-11-11T14:41:44.850Z,6.8
2022-11-11T14:44:15.428Z,6.6
2022-11-11T14:46:46.008Z,6.2
2022-11-11T14:49:26.606Z,6.2
2022-11-11T14:51:57.235Z,6.1
2022-11-11T14:54:27.837Z,6.0
2022-11-11T14:57:02.863Z,5.7
2022-11-11T14:59:33.703Z,5.6
2022-11-11T15:02:04.312Z,5.4
2022-11-11T15:04:40.302Z,5.3
2022-11-11T15:07:10.929Z,5.2
2022-11-11T15:09:41.567Z,5.1
2022-11-11T15:12:12.187Z,5.1
2022-11-11T15:14:42.819Z,4.8
2022-11-11T15:17:13.410Z,4.6
2022-11-11T15:22:34.152Z,4.3
2022-11-11T15:24:59.825Z,4.1
2022-11-11T15:27:30.407Z,4.0
2022-11-11T15:30:01.001Z,3.8
2022-11-11T15:32:41.611Z,3.7
2022-11-11T15:35:12.198Z,3.7
2022-11-11T15:37:42.798Z,3.5
2022-11-11T15:40:13.413Z,3.5
2022-11-11T15:42:44.023Z,3.4
2022-11-11T15:45:14.657Z,3.4
2022-11-11T15:47:55.274Z,3.3
2022-11-11T15:50:25.883Z,3.3
2022-11-11T15:52:56.506Z,3.3
2022-11-11T15:55:28.629Z,3.3
2022-11-11T15:57:59.211Z,3.3
2022-11-11T16:03:09.964Z,3.3
2022-11-11T16:05:40.548Z,3.2
2022-11-11T16:08:11.172Z,3.2
2022-11-11T16:10:41.809Z,3.1
2022-11-11T16:13:12.436Z,3.1
2022-11-11T16:15:43.052Z,3.1
2022-11-11T16:18:23.958Z,3.1
2022-11-11T16:20:54.718Z,3.1
2022-11-11T16:23:25.508Z,3.1
2022-11-11T16:25:56.402Z,3.1
2022-11-11T16:28:27.017Z,3.1
2022-11-11T16:31:07.618Z,3.0
2022-11-11T16:33:38.192Z,3.0
2022-11-11T16:36:08.778Z,2.9
2022-11-11T16:38:39.397Z,2.9
2022-11-11T16:43:40.147Z,2.9
2022-11-11T16:46:20.834Z,2.9
2022-11-11T16:48:51.436Z,2.8
2022-11-11T16:51:22.058Z,2.7
2022-11-11T16:53:52.660Z,2.7
2022-11-11T16:56:33.261Z,2.7
2022-11-11T16:59:03.841Z,2.7
2022-11-11T17:01:44.650Z,2.5
2022-11-11T17:04:15.357Z,2.6
2022-11-11T17:06:46.059Z,2.6
2022-11-11T17:09:16.954Z,2.6
2022-11-11T17:11:47.671Z,2.5
2022-11-11T17:14:18.274Z,2.5
2022-11-11T17:16:58.901Z,2.5
2022-11-11T17:19:29.497Z,2.4
2022-11-11T17:24:30.248Z,2.4
2022-11-11T17:27:00.849Z,2.4
2022-11-11T17:29:34.551Z,2.5
2022-11-11T17:32:08.116Z,2.4
2022-11-11T17:34:38.683Z,2.4
2022-11-11T17:37:09.290Z,2.4
2022-11-11T17:39:39.884Z,2.3
2022-11-11T17:42:10.501Z,2.3
2022-11-11T17:44:51.093Z,2.3
2022-11-11T17:47:21.676Z,2.3
2022-11-11T17:49:56.953Z,2.3
2022-11-11T17:52:27.837Z,2.3
2022-11-11T17:54:58.432Z,2.3
2022-11-11T17:57:29.026Z,2.3
2022-11-11T18:00:09.631Z,2.3
2022-11-11T18:05:10.367Z,2.5
2022-11-11T18:07:44.809Z,2.4
2022-11-11T18:10:15.621Z,2.4
2022-11-11T18:12:46.207Z,2.5
2022-11-11T18:15:26.828Z,2.4
2022-11-11T18:17:57.418Z,2.4
2022-11-11T18:20:28.005Z,2.4
2022-11-11T18:22:58.596Z,2.5
2022-11-11T18:25:29.203Z,2.6
2022-11-11T18:27:59.812Z,2.5
2022-11-11T18:30:40.404Z,2.5
2022-11-11T18:33:10.976Z,2.6
2022-11-11T18:35:41.562Z,2.6
2022-11-11T18:38:12.196Z,2.6
2022-11-11T18:40:42.809Z,2.5
2022-11-11T18:45:53.568Z,2.6
2022-11-11T18:48:24.157Z,2.6
2022-11-11T18:50:54.775Z,2.6
2022-11-11T18:53:25.574Z,2.6
2022-11-11T18:55:56.356Z,2.6
2022-11-11T18:58:36.961Z,2.6
2022-11-11T19:01:07.555Z,2.6
2022-11-11T19:03:38.281Z,2.6
2022-11-11T19:06:08.897Z,2.5
2022-11-11T19:08:39.489Z,2.5
2022-11-11T19:11:10.112Z,2.5
2022-11-11T19:13:50.718Z,2.5
2022-11-11T19:16:21.321Z,2.5
2022-11-11T19:18:51.916Z,2.5
2022-11-11T19:21:22.526Z,2.5
2022-11-11T19:26:23.303Z,2.5
2022-11-11T19:29:03.909Z,2.6
2022-11-11T19:31:34.507Z,2.6
2022-11-11T19:34:05.092Z,2.6
2022-11-11T19:36:35.685Z,2.6
2022-11-11T19:39:06.287Z,2.6
2022-11-11T19:41:36.904Z,2.7
2022-11-11T19:44:17.506Z,2.6
2022-11-11T19:46:48.113Z,2.6
2022-11-11T19:49:18.673Z,2.7
2022-11-11T19:51:49.329Z,2.7
2022-11-11T19:54:19.905Z,2.6
2022-11-11T19:57:00.485Z,2.7
2022-11-11T19:59:31.083Z,2.6
2022-11-11T20:02:01.817Z,2.5
2022-11-11T20:07:02.606Z,2.3
2022-11-11T20:09:33.339Z,2.3
2022-11-11T20:12:13.961Z,2.3
2022-11-11T20:14:44.561Z,2.3
2022-11-11T20:17:15.165Z,2.3
2022-11-11T20:19:45.762Z,2.3
2022-11-11T20:22:16.356Z,2.3
2022-11-11T20:24:56.953Z,2.2
2022-11-11T20:27:37.589Z,2.2
2022-11-11T20:30:08.178Z,2.2
2022-11-11T20:32:38.761Z,2.2
2022-11-11T20:35:09.361Z,2.2
2022-11-11T20:37:36.045Z,2.1
2022-11-11T20:40:06.648Z,2.1
2022-11-11T20:42:47.255Z,2.1
2022-11-11T20:47:47.988Z,2.1
2022-11-11T20:50:18.605Z,2.0
2022-11-11T20:52:49.211Z,2.0
2022-11-11T20:55:19.819Z,2.0
2022-11-11T20:58:00.406Z,2.0
2022-11-11T21:00:30.999Z,2.0
2022-11-11T21:03:01.592Z,2.0
2022-11-11T21:05:32.284Z,1.9
2022-11-11T21:08:02.856Z,1.9
2022-11-11T21:10:44.941Z,1.9
2022-11-11T21:13:15.523Z,1.8
2022-11-11T21:15:46.555Z,1.8
2022-11-11T21:18:17.155Z,1.7
2022-11-11T21:20:47.701Z,1.7
2022-11-11T21:23:18.274Z,1.7
2022-11-11T21:28:29.537Z,1.7
2022-11-11T21:31:00.147Z,1.6
2022-11-11T21:33:30.740Z,1.6
2022-11-11T21:36:01.329Z,1.6
2022-11-11T21:38:31.930Z,1.5
2022-11-11T21:41:12.537Z,1.7
2022-11-11T21:43:43.129Z,1.7
2022-11-11T21:48:43.844Z,1.5
2022-11-11T21:51:14.461Z,1.6
2022-11-11T21:53:45.062Z,1.5
2022-11-11T21:56:32.441Z,1.5
2022-11-11T21:59:03.037Z,1.5
2022-11-11T22:01:33.720Z,1.5
2022-11-11T22:04:04.549Z,1.5
2022-11-11T22:09:15.305Z,1.5
2022-11-11T22:11:45.887Z,1.5
2022-11-11T22:14:16.497Z,1.5
2022-11-11T22:16:47.080Z,1.5
2022-11-11T22:19:17.675Z,1.6
2022-11-11T22:21:48.289Z,1.6
2022-11-11T22:24:29.011Z,1.5
2022-11-11T22:26:59.619Z,1.5
2022-11-11T22:29:30.220Z,1.5
2022-11-11T22:32:00.814Z,1.3
2022-11-11T22:34:31.394Z,1.2
2022-11-11T22:37:01.987Z,1.2
2022-11-11T22:39:42.563Z,1.3
2022-11-11T22:42:13.262Z,1.2
2022-11-11T22:44:43.861Z,1.2
2022-11-11T22:49:44.599Z,1.2
2022-11-11T22:52:15.208Z,1.2
2022-11-11T22:54:55.816Z,1.1
2022-11-11T22:57:26.408Z,1.1
2022-11-11T22:59:57.020Z,1.1
2022-11-11T23:02:27.682Z,1.1
2022-11-11T23:04:58.303Z,1.0
2022-11-11T23:07:38.919Z,1.0
2022-11-11T23:10:09.509Z,1.1
2022-11-11T23:12:40.099Z,0.9
2022-11-11T23:15:15.061Z,0.9
2022-11-11T23:17:45.637Z,0.8
2022-11-11T23:20:16.255Z,0.8
2022-11-11T23:22:56.833Z,0.8
2022-11-11T23:25:27.422Z,0.8
2022-11-11T23:30:28.194Z,0.9
2022-11-11T23:32:58.761Z,0.9
2022-11-11T23:35:29.353Z,0.8
2022-11-11T23:38:09.963Z,0.8
2022-11-11T23:40:40.578Z,0.9
2022-11-11T23:43:11.148Z,1.1
2022-11-11T23:45:41.755Z,0.9
2022-11-11T23:48:17.483Z,0.9
2022-11-11T23:50:48.386Z,0.8
2022-11-11T23:53:28.991Z,0.8
2022-11-11T23:55:59.620Z,0.8
2022-11-11T23:58:30.424Z,0.7
